createdAt,value
2022-12-27T07:57:05.626Z,97739.91
2022-12-27T07:58:07.143Z,97727.91
2022-12-27T08:00:35.593Z,97735.16
2022-12-27T08:01:55.815Z,97736.97
2022-12-27T08:02:57.364Z,97737.00
2022-12-27T08:03:58.739Z,97730.16
2022-12-27T08:05:00.149Z,97731.84
2022-12-27T08:06:01.597Z,97720.66
2022-12-27T08:07:14.897Z,97727.53
2022-12-27T08:08:18.383Z,97726.63
2022-12-27T08:09:27.985Z,97719.66
2022-12-27T08:10:29.515Z,97733.31
2022-12-27T08:11:31.089Z,97711.63
2022-12-27T08:12:32.675Z,97728.00
2022-12-27T08:13:34.727Z,97734.84
2022-12-27T08:14:36.270Z,97738.97
2022-12-27T08:15:39.985Z,97748.34
2022-12-27T08:16:41.379Z,97741.25
2022-12-27T08:17:42.893Z,97735.91
2022-12-27T08:18:44.782Z,97741.97
2022-12-27T08:19:47.109Z,97732.25
2022-12-27T08:20:48.942Z,97733.84
2022-12-27T08:21:50.337Z,97732.00
2022-12-27T08:22:51.817Z,97736.53
2022-12-27T08:23:53.142Z,97730.56
2022-12-27T08:24:56.117Z,97733.78
2022-12-27T08:25:57.584Z,97730.28
2022-12-27T08:26:58.999Z,97723.28
2022-12-27T08:28:08.698Z,97722.91
2022-12-27T08:29:10.066Z,97734.66
2022-12-27T08:30:12.422Z,97727.75
2022-12-27T08:31:14.510Z,97735.69
2022-12-27T08:32:16.359Z,97741.84
2022-12-27T08:33:17.851Z,97737.06
2022-12-27T08:34:19.359Z,97740.22
2022-12-27T08:35:51.095Z,97742.88
2022-12-27T08:36:55.029Z,97734.13
2022-12-27T08:37:57.170Z,97740.94
2022-12-27T08:38:58.588Z,97740.34
2022-12-27T08:40:02.859Z,97736.75
2022-12-27T08:41:04.842Z,97740.84
2022-12-27T08:42:06.336Z,97738.88
2022-12-27T08:43:08.785Z,97735.13
2022-12-27T08:44:10.528Z,97731.44
2022-12-27T08:45:11.999Z,97739.81
2022-12-27T08:46:14.186Z,97734.56
2022-12-27T08:47:15.642Z,97732.44
2022-12-27T08:48:17.304Z,97742.19
2022-12-27T08:49:18.785Z,97737.19
2022-12-27T08:50:20.192Z,97733.59
2022-12-27T08:51:32.799Z,97729.47
2022-12-27T08:52:39.972Z,97734.13
2022-12-27T08:53:41.459Z,97740.88
2022-12-27T08:54:42.803Z,97739.00
2022-12-27T08:55:44.182Z,97739.94
2022-12-27T08:56:45.649Z,97733.63
2022-12-27T08:57:47.015Z,97731.84
2022-12-27T08:58:49.359Z,97738.59
2022-12-27T08:59:50.731Z,97722.56
2022-12-27T09:00:52.264Z,97730.38
2022-12-27T09:01:53.688Z,97729.44
2022-12-27T09:02:55.533Z,97738.59
2022-12-27T09:03:57.060Z,97740.78
2022-12-27T09:04:58.442Z,97743.63
2022-12-27T09:06:15.666Z,97735.97
2022-12-27T09:07:17.074Z,97737.50
2022-12-27T09:08:18.442Z,97733.50
2022-12-27T09:09:19.828Z,97743.19
2022-12-27T09:10:23.419Z,97745.09
2022-12-27T09:11:27.664Z,97751.03
2022-12-27T09:12:29.034Z,97745.44
2022-12-27T09:13:30.409Z,97747.38
2022-12-27T09:14:31.949Z,97743.63
2022-12-27T09:15:33.334Z,97750.41
2022-12-27T09:16:35.889Z,97747.50
2022-12-27T09:17:37.309Z,97749.16
2022-12-27T09:18:39.645Z,97753.59
2022-12-27T09:19:41.045Z,97749.25
2022-12-27T09:20:42.489Z,97756.53
2022-12-27T09:21:44.115Z,97759.31
2022-12-27T09:22:45.592Z,97752.44
2022-12-27T09:23:47.735Z,97754.34
2022-12-27T09:24:49.058Z,97748.88
2022-12-27T09:25:50.420Z,97763.28
2022-12-27T09:26:52.085Z,97762.50
2022-12-27T09:27:53.465Z,97760.25
2022-12-27T09:28:56.267Z,97761.16
2022-12-27T09:29:57.611Z,97759.47
2022-12-27T09:30:59.032Z,97763.34
2022-12-27T09:32:00.440Z,97764.66
2022-12-27T09:33:01.810Z,97766.75
2022-12-27T09:34:03.205Z,97770.22
2022-12-27T09:35:05.212Z,97762.09
2022-12-27T09:36:15.900Z,97755.84
2022-12-27T09:37:17.318Z,97769.50
2022-12-27T09:38:18.680Z,97764.50
2022-12-27T09:39:20.095Z,97773.91
2022-12-27T09:40:21.812Z,97767.78
2022-12-27T09:42:43.785Z,97764.91
2022-12-27T09:43:20.653Z,97767.69
2022-12-27T09:44:34.403Z,97763.28
2022-12-27T09:45:42.384Z,97762.72
2022-12-27T09:47:11.037Z,97753.38
2022-12-27T09:48:35.581Z,97757.28
2022-12-27T09:49:41.379Z,97755.06
2022-12-27T09:50:55.390Z,97762.47
2022-12-27T09:52:04.353Z,97753.78
2022-12-27T09:53:17.219Z,97757.94
2022-12-27T09:54:27.773Z,97757.03
2022-12-27T09:55:46.650Z,97761.94
2022-12-27T09:57:18.377Z,97741.94
2022-12-27T09:58:33.843Z,97746.81
2022-12-27T09:59:45.006Z,97746.94
2022-12-27T10:00:46.746Z,97746.59
2022-12-27T10:01:49.109Z,97740.00
2022-12-27T10:02:51.885Z,97745.72
2022-12-27T10:03:56.384Z,97736.13
2022-12-27T10:06:36.377Z,97739.41
2022-12-27T10:07:55.859Z,97741.47
2022-12-27T10:09:26.040Z,97734.09
2022-12-27T10:10:36.532Z,97736.00
2022-12-27T10:12:01.464Z,97735.59
2022-12-27T10:13:08.500Z,97739.63
2022-12-27T10:14:22.013Z,97739.06
2022-12-27T10:15:46.882Z,97748.59
2022-12-27T10:17:01.945Z,97739.34
2022-12-27T10:18:34.370Z,97740.44
2022-12-27T10:19:49.736Z,97740.81
2022-12-27T10:21:12.542Z,97734.91
2022-12-27T10:22:22.923Z,97727.03
2022-12-27T10:23:30.055Z,97727.41
2022-12-27T10:25:02.732Z,97724.50
2022-12-27T10:26:15.806Z,97713.94
2022-12-27T10:27:26.184Z,97719.09
2022-12-27T10:28:38.769Z,97700.53
2022-12-27T10:29:41.022Z,97707.59
2022-12-27T10:30:43.437Z,97715.03
2022-12-27T10:31:46.063Z,97712.19
2022-12-27T10:32:49.007Z,97715.44
2022-12-27T10:33:51.576Z,97712.03
2022-12-27T10:34:56.975Z,97709.81
2022-12-27T10:35:58.763Z,97713.41
2022-12-27T10:37:00.522Z,97716.59
2022-12-27T10:38:01.898Z,97713.41
2022-12-27T10:39:10.088Z,97712.47
2022-12-27T10:40:18.803Z,97716.00
2022-12-27T10:41:52.641Z,97720.38
2022-12-27T10:42:53.964Z,97726.94
2022-12-27T10:43:55.406Z,97720.69
2022-12-27T10:45:24.415Z,97722.34
2022-12-27T10:46:32.808Z,97716.75
2022-12-27T10:47:35.039Z,97710.19
2022-12-27T10:49:02.680Z,97717.31
2022-12-27T10:50:12.007Z,97710.38
2022-12-27T10:51:14.028Z,97712.53
2022-12-27T10:52:23.827Z,97709.03
2022-12-27T10:53:29.864Z,97714.19
2022-12-27T10:54:31.318Z,97710.38
2022-12-27T10:55:35.750Z,97709.88
2022-12-27T10:56:41.265Z,97714.84
2022-12-27T10:57:42.856Z,97711.09
2022-12-27T10:58:56.608Z,97701.91
2022-12-27T11:00:22.832Z,97718.13
2022-12-27T11:01:30.003Z,97710.38
2022-12-27T11:02:31.525Z,97703.78
2022-12-27T11:03:33.118Z,97707.47
2022-12-27T11:04:34.606Z,97707.59
2022-12-27T11:05:37.159Z,97712.94
2022-12-27T11:06:39.687Z,97707.94
2022-12-27T11:07:41.135Z,97715.63
2022-12-27T11:08:42.681Z,97714.94
2022-12-27T11:09:50.698Z,97725.38
2022-12-27T11:11:25.435Z,97715.97
2022-12-27T11:12:32.129Z,97717.75
2022-12-27T11:13:33.581Z,97721.88
2022-12-27T11:14:37.161Z,97719.19
2022-12-27T11:15:42.982Z,97710.16
2022-12-27T11:16:45.780Z,97721.91
2022-12-27T11:17:53.870Z,97725.16
2022-12-27T11:18:58.302Z,97718.38
2022-12-27T11:20:06.524Z,97718.72
2022-12-27T11:21:21.200Z,97717.00
2022-12-27T11:22:26.966Z,97719.78
2022-12-27T11:23:36.125Z,97713.97
2022-12-27T11:24:42.890Z,97718.41
2022-12-27T11:25:54.222Z,97718.47
2022-12-27T11:27:01.330Z,97721.09
2022-12-27T11:28:19.096Z,97720.81
2022-12-27T11:29:24.388Z,97712.81
2022-12-27T11:30:32.935Z,97717.75
2022-12-27T11:31:40.186Z,97722.59
2022-12-27T11:32:45.330Z,97720.19
2022-12-27T11:33:59.650Z,97715.91
2022-12-27T11:35:01.067Z,97725.94
2022-12-27T11:36:02.906Z,97719.13
2022-12-27T11:37:14.261Z,97728.41
2022-12-27T11:38:33.697Z,97726.91
2022-12-27T11:40:20.226Z,97715.00
2022-12-27T11:41:37.736Z,97725.59
2022-12-27T11:42:43.284Z,97729.16
2022-12-27T11:43:53.537Z,97712.81
2022-12-27T11:45:03.877Z,97725.41
2022-12-27T11:46:13.776Z,97727.78
2022-12-27T11:47:33.942Z,97733.31
2022-12-27T11:48:40.900Z,97725.38
2022-12-27T11:49:57.808Z,97723.19
2022-12-27T11:51:33.056Z,97732.91
2022-12-27T11:52:53.607Z,97729.94
2022-12-27T11:54:10.838Z,97732.72
2022-12-27T11:55:27.690Z,97731.56
2022-12-27T11:56:30.940Z,97720.88
2022-12-27T11:58:15.362Z,97732.22
2022-12-27T11:59:31.500Z,97725.34
2022-12-27T12:00:46.794Z,97722.06
2022-12-27T12:02:07.905Z,97728.94
2022-12-27T12:03:34.517Z,97727.88
2022-12-27T12:04:51.255Z,97717.19
2022-12-27T12:06:11.192Z,97727.28
2022-12-27T12:07:48.166Z,97722.63
2022-12-27T12:09:18.530Z,97720.88
2022-12-27T12:10:45.425Z,97723.63
2022-12-27T12:11:52.990Z,97714.34
2022-12-27T12:13:17.304Z,97720.34
2022-12-27T12:14:35.843Z,97721.94
2022-12-27T12:16:13.381Z,97719.09
2022-12-27T12:17:52.063Z,97723.19
2022-12-27T12:19:14.231Z,97718.13
2022-12-27T12:20:42.286Z,97722.91
2022-12-27T12:22:05.815Z,97715.97
2022-12-27T12:23:18.598Z,97716.53
2022-12-27T12:24:34.310Z,97718.75
2022-12-27T12:26:10.858Z,97716.50
2022-12-27T12:27:22.317Z,97722.84
2022-12-27T12:30:34.425Z,97714.44
2022-12-27T12:31:55.827Z,97716.94
2022-12-27T12:33:19.097Z,97713.50
2022-12-27T12:35:00.946Z,97719.13
2022-12-27T12:36:29.922Z,97716.56
2022-12-27T12:37:59.754Z,97720.50
2022-12-27T12:39:11.886Z,97712.75
2022-12-27T12:40:25.351Z,97717.84
2022-12-27T12:42:24.287Z,97716.00
2022-12-27T12:43:47.587Z,97715.38
2022-12-27T12:45:26.036Z,97708.28
2022-12-27T12:46:56.557Z,97715.34
2022-12-27T12:48:15.852Z,97712.28
2022-12-27T12:49:38.925Z,97702.56
2022-12-27T12:50:58.587Z,97703.28
2022-12-27T12:52:28.814Z,97703.25
2022-12-27T12:53:57.584Z,97702.78
2022-12-27T12:55:26.871Z,97699.88
2022-12-27T12:56:59.126Z,97699.88
2022-12-27T12:58:17.463Z,97699.88
2022-12-27T12:59:39.060Z,97700.31
2022-12-27T13:01:15.075Z,97701.13
2022-12-27T13:02:35.057Z,97709.34
2022-12-27T13:04:03.699Z,97696.13
2022-12-27T13:05:17.126Z,97708.31
2022-12-27T13:07:06.835Z,97698.97
2022-12-27T13:08:29.820Z,97698.31
2022-12-27T13:09:40.339Z,97706.22
2022-12-27T13:11:19.048Z,97705.53
2022-12-27T13:12:37.664Z,97693.13
2022-12-27T13:14:17.290Z,97703.41
2022-12-27T13:15:37.640Z,97707.25
2022-12-27T13:16:52.827Z,97701.34
2022-12-27T13:27:30.184Z,97694.69
